sensor_id;sensor_type;location;lat;lon;timestamp;P1;durP1;ratioP1;P2;durP2;ratioP2
69334;SDS011;56477;52.742;15.242;2022-07-23T00:01:23;9.70;;;5.85;;
69334;SDS011;56477;52.742;15.242;2022-07-23T00:03:49;10.38;;;6.18;;
69334;SDS011;56477;52.742;15.242;2022-07-23T00:06:17;11.37;;;6.60;;
69334;SDS011;56477;52.742;15.242;2022-07-23T00:08:43;9.20;;;6.28;;
69334;SDS011;56477;52.742;15.242;2022-07-23T00:11:09;9.05;;;5.97;;
69334;SDS011;56477;52.742;15.242;2022-07-23T00:13:35;9.45;;;6.22;;
69334;SDS011;56477;52.742;15.242;2022-07-23T00:16:01;11.13;;;6.13;;
69334;SDS011;56477;52.742;15.242;2022-07-23T00:18:27;10.95;;;6.07;;
69334;SDS011;56477;52.742;15.242;2022-07-23T00:20:53;10.73;;;6.15;;
69334;SDS011;56477;52.742;15.242;2022-07-23T00:23:19;9.10;;;5.63;;
69334;SDS011;56477;52.742;15.242;2022-07-23T00:25:45;12.20;;;6.47;;
69334;SDS011;56477;52.742;15.242;2022-07-23T00:28:11;10.38;;;6.07;;
69334;SDS011;56477;52.742;15.242;2022-07-23T00:30:37;10.27;;;6.28;;
69334;SDS011;56477;52.742;15.242;2022-07-23T00:33:04;9.30;;;6.07;;
69334;SDS011;56477;52.742;15.242;2022-07-23T00:35:33;12.65;;;6.32;;
69334;SDS011;56477;52.742;15.242;2022-07-23T00:38:00;9.27;;;6.35;;
69334;SDS011;56477;52.742;15.242;2022-07-23T00:40:27;10.32;;;5.50;;
69334;SDS011;56477;52.742;15.242;2022-07-23T00:42:53;9.77;;;5.85;;
69334;SDS011;56477;52.742;15.242;2022-07-23T00:45:19;12.03;;;6.27;;
69334;SDS011;56477;52.742;15.242;2022-07-23T00:47:46;9.48;;;6.80;;
69334;SDS011;56477;52.742;15.242;2022-07-23T00:50:12;12.35;;;6.28;;
69334;SDS011;56477;52.742;15.242;2022-07-23T00:52:39;9.55;;;5.93;;
69334;SDS011;56477;52.742;15.242;2022-07-23T00:55:06;9.57;;;6.40;;
69334;SDS011;56477;52.742;15.242;2022-07-23T00:57:33;9.98;;;5.75;;
69334;SDS011;56477;52.742;15.242;2022-07-23T00:59:59;9.82;;;6.00;;
69334;SDS011;56477;52.742;15.242;2022-07-23T01:02:26;11.43;;;6.25;;
69334;SDS011;56477;52.742;15.242;2022-07-23T01:04:52;9.23;;;6.43;;
69334;SDS011;56477;52.742;15.242;2022-07-23T01:07:19;9.17;;;6.30;;
69334;SDS011;56477;52.742;15.242;2022-07-23T01:09:46;12.13;;;6.93;;
69334;SDS011;56477;52.742;15.242;2022-07-23T01:12:12;11.20;;;6.03;;
69334;SDS011;56477;52.742;15.242;2022-07-23T01:14:38;10.38;;;6.22;;
69334;SDS011;56477;52.742;15.242;2022-07-23T01:17:04;10.47;;;6.40;;
69334;SDS011;56477;52.742;15.242;2022-07-23T01:19:30;9.48;;;6.32;;
69334;SDS011;56477;52.742;15.242;2022-07-23T01:21:56;9.35;;;6.57;;
69334;SDS011;56477;52.742;15.242;2022-07-23T01:24:23;10.30;;;6.10;;
69334;SDS011;56477;52.742;15.242;2022-07-23T01:26:49;9.43;;;5.87;;
69334;SDS011;56477;52.742;15.242;2022-07-23T01:29:16;9.23;;;6.35;;
69334;SDS011;56477;52.742;15.242;2022-07-23T01:31:42;13.93;;;6.93;;
69334;SDS011;56477;52.742;15.242;2022-07-23T01:34:08;10.43;;;6.90;;
69334;SDS011;56477;52.742;15.242;2022-07-23T01:36:35;13.95;;;7.18;;
69334;SDS011;56477;52.742;15.242;2022-07-23T01:39:02;11.27;;;7.10;;
69334;SDS011;56477;52.742;15.242;2022-07-23T01:41:31;9.90;;;6.97;;
69334;SDS011;56477;52.742;15.242;2022-07-23T01:43:56;9.95;;;7.05;;
69334;SDS011;56477;52.742;15.242;2022-07-23T01:46:23;10.98;;;6.53;;
69334;SDS011;56477;52.742;15.242;2022-07-23T01:48:49;10.90;;;6.47;;
69334;SDS011;56477;52.742;15.242;2022-07-23T01:51:15;11.07;;;6.93;;
69334;SDS011;56477;52.742;15.242;2022-07-23T01:53:41;12.55;;;6.13;;
69334;SDS011;56477;52.742;15.242;2022-07-23T01:56:07;9.53;;;6.57;;
69334;SDS011;56477;52.742;15.242;2022-07-23T01:58:33;11.63;;;6.82;;
69334;SDS011;56477;52.742;15.242;2022-07-23T02:00:59;11.20;;;6.47;;
69334;SDS011;56477;52.742;15.242;2022-07-23T02:03:25;8.48;;;6.35;;
69334;SDS011;56477;52.742;15.242;2022-07-23T02:05:52;10.40;;;6.85;;
69334;SDS011;56477;52.742;15.242;2022-07-23T02:08:18;13.13;;;6.73;;
69334;SDS011;56477;52.742;15.242;2022-07-23T02:10:44;11.82;;;6.90;;
69334;SDS011;56477;52.742;15.242;2022-07-23T02:13:11;13.70;;;6.80;;
69334;SDS011;56477;52.742;15.242;2022-07-23T02:15:37;11.18;;;6.85;;
69334;SDS011;56477;52.742;15.242;2022-07-23T02:18:03;10.60;;;6.93;;
69334;SDS011;56477;52.742;15.242;2022-07-23T02:20:29;12.80;;;7.20;;
69334;SDS011;56477;52.742;15.242;2022-07-23T02:22:55;13.32;;;7.80;;
69334;SDS011;56477;52.742;15.242;2022-07-23T02:25:21;15.43;;;10.23;;
69334;SDS011;56477;52.742;15.242;2022-07-23T02:27:47;11.87;;;8.00;;
69334;SDS011;56477;52.742;15.242;2022-07-23T02:30:13;13.43;;;7.25;;
69334;SDS011;56477;52.742;15.242;2022-07-23T02:32:39;10.70;;;6.50;;
69334;SDS011;56477;52.742;15.242;2022-07-23T02:35:05;10.27;;;6.50;;
69334;SDS011;56477;52.742;15.242;2022-07-23T02:37:31;10.63;;;6.63;;
69334;SDS011;56477;52.742;15.242;2022-07-23T02:39:58;11.10;;;6.50;;
69334;SDS011;56477;52.742;15.242;2022-07-23T02:42:23;11.50;;;6.35;;
69334;SDS011;56477;52.742;15.242;2022-07-23T02:44:50;13.43;;;7.20;;
69334;SDS011;56477;52.742;15.242;2022-07-23T02:47:17;12.50;;;6.87;;
69334;SDS011;56477;52.742;15.242;2022-07-23T02:49:43;10.30;;;6.57;;
69334;SDS011;56477;52.742;15.242;2022-07-23T02:52:09;12.05;;;6.82;;
69334;SDS011;56477;52.742;15.242;2022-07-23T02:54:37;10.30;;;6.85;;
69334;SDS011;56477;52.742;15.242;2022-07-23T02:57:03;12.37;;;6.53;;
69334;SDS011;56477;52.742;15.242;2022-07-23T02:59:30;12.00;;;6.45;;
69334;SDS011;56477;52.742;15.242;2022-07-23T03:01:56;13.82;;;6.45;;
69334;SDS011;56477;52.742;15.242;2022-07-23T03:04:22;11.43;;;6.75;;
69334;SDS011;56477;52.742;15.242;2022-07-23T03:06:48;10.77;;;6.70;;
69334;SDS011;56477;52.742;15.242;2022-07-23T03:09:14;11.40;;;6.57;;
69334;SDS011;56477;52.742;15.242;2022-07-23T03:11:39;10.63;;;7.17;;
69334;SDS011;56477;52.742;15.242;2022-07-23T03:14:05;14.63;;;7.37;;
69334;SDS011;56477;52.742;15.242;2022-07-23T03:16:32;11.40;;;7.15;;
69334;SDS011;56477;52.742;15.242;2022-07-23T03:18:58;10.88;;;7.28;;
69334;SDS011;56477;52.742;15.242;2022-07-23T03:21:24;10.43;;;7.22;;
69334;SDS011;56477;52.742;15.242;2022-07-23T03:23:50;11.70;;;7.50;;
69334;SDS011;56477;52.742;15.242;2022-07-23T03:26:16;13.05;;;9.00;;
69334;SDS011;56477;52.742;15.242;2022-07-23T03:28:42;16.25;;;8.68;;
69334;SDS011;56477;52.742;15.242;2022-07-23T03:31:08;12.27;;;7.30;;
69334;SDS011;56477;52.742;15.242;2022-07-23T03:33:34;14.30;;;7.13;;
69334;SDS011;56477;52.742;15.242;2022-07-23T03:36:00;11.13;;;7.18;;
69334;SDS011;56477;52.742;15.242;2022-07-23T03:38:26;13.57;;;7.00;;
69334;SDS011;56477;52.742;15.242;2022-07-23T03:40:52;11.25;;;7.75;;
69334;SDS011;56477;52.742;15.242;2022-07-23T03:43:18;10.93;;;7.43;;
69334;SDS011;56477;52.742;15.242;2022-07-23T03:45:44;11.77;;;7.37;;
69334;SDS011;56477;52.742;15.242;2022-07-23T03:48:09;10.15;;;7.15;;
69334;SDS011;56477;52.742;15.242;2022-07-23T03:50:36;13.73;;;6.95;;
69334;SDS011;56477;52.742;15.242;2022-07-23T03:53:02;11.73;;;7.77;;
69334;SDS011;56477;52.742;15.242;2022-07-23T03:55:28;11.55;;;7.47;;
69334;SDS011;56477;52.742;15.242;2022-07-23T03:57:54;11.27;;;7.40;;
69334;SDS011;56477;52.742;15.242;2022-07-23T04:00:21;10.63;;;7.30;;
69334;SDS011;56477;52.742;15.242;2022-07-23T04:02:47;11.10;;;6.83;;
69334;SDS011;56477;52.742;15.242;2022-07-23T04:05:13;10.88;;;7.30;;
69334;SDS011;56477;52.742;15.242;2022-07-23T04:07:39;13.27;;;7.75;;
69334;SDS011;56477;52.742;15.242;2022-07-23T04:10:05;11.52;;;7.03;;
69334;SDS011;56477;52.742;15.242;2022-07-23T04:12:32;11.87;;;7.40;;
69334;SDS011;56477;52.742;15.242;2022-07-23T04:14:58;10.38;;;6.95;;
69334;SDS011;56477;52.742;15.242;2022-07-23T04:17:23;11.48;;;7.63;;
69334;SDS011;56477;52.742;15.242;2022-07-23T04:19:49;12.02;;;7.85;;
69334;SDS011;56477;52.742;15.242;2022-07-23T04:22:15;12.00;;;7.10;;
69334;SDS011;56477;52.742;15.242;2022-07-23T04:24:41;12.65;;;8.32;;
69334;SDS011;56477;52.742;15.242;2022-07-23T04:27:07;15.25;;;8.45;;
69334;SDS011;56477;52.742;15.242;2022-07-23T04:29:33;10.80;;;7.80;;
69334;SDS011;56477;52.742;15.242;2022-07-23T04:31:59;12.65;;;8.60;;
69334;SDS011;56477;52.742;15.242;2022-07-23T04:34:25;11.43;;;8.23;;
69334;SDS011;56477;52.742;15.242;2022-07-23T04:36:52;11.67;;;7.07;;
69334;SDS011;56477;52.742;15.242;2022-07-23T04:39:18;12.50;;;7.47;;
69334;SDS011;56477;52.742;15.242;2022-07-23T04:41:44;11.75;;;7.95;;
69334;SDS011;56477;52.742;15.242;2022-07-23T04:44:10;12.85;;;7.82;;
69334;SDS011;56477;52.742;15.242;2022-07-23T04:46:36;12.03;;;6.83;;
69334;SDS011;56477;52.742;15.242;2022-07-23T04:49:02;12.45;;;7.40;;
69334;SDS011;56477;52.742;15.242;2022-07-23T04:51:28;12.25;;;7.72;;
69334;SDS011;56477;52.742;15.242;2022-07-23T04:53:54;14.65;;;7.55;;
69334;SDS011;56477;52.742;15.242;2022-07-23T04:56:21;11.07;;;7.40;;
69334;SDS011;56477;52.742;15.242;2022-07-23T04:58:47;10.38;;;7.10;;
69334;SDS011;56477;52.742;15.242;2022-07-23T05:01:13;12.13;;;6.60;;
69334;SDS011;56477;52.742;15.242;2022-07-23T05:03:39;12.10;;;7.53;;
69334;SDS011;56477;52.742;15.242;2022-07-23T05:06:05;11.97;;;7.10;;
69334;SDS011;56477;52.742;15.242;2022-07-23T05:08:31;12.25;;;7.57;;
69334;SDS011;56477;52.742;15.242;2022-07-23T05:10:57;12.27;;;7.25;;
69334;SDS011;56477;52.742;15.242;2022-07-23T05:13:23;10.43;;;6.97;;
69334;SDS011;56477;52.742;15.242;2022-07-23T05:15:49;11.87;;;7.30;;
69334;SDS011;56477;52.742;15.242;2022-07-23T05:18:15;13.88;;;7.60;;
69334;SDS011;56477;52.742;15.242;2022-07-23T05:20:40;11.77;;;7.30;;
69334;SDS011;56477;52.742;15.242;2022-07-23T05:23:06;12.23;;;7.40;;
69334;SDS011;56477;52.742;15.242;2022-07-23T05:25:33;10.57;;;7.25;;
69334;SDS011;56477;52.742;15.242;2022-07-23T05:27:59;10.38;;;7.53;;
69334;SDS011;56477;52.742;15.242;2022-07-23T05:30:24;11.13;;;7.78;;
69334;SDS011;56477;52.742;15.242;2022-07-23T05:32:51;9.50;;;7.20;;
69334;SDS011;56477;52.742;15.242;2022-07-23T05:35:17;11.55;;;7.85;;
69334;SDS011;56477;52.742;15.242;2022-07-23T05:37:43;13.35;;;7.25;;
69334;SDS011;56477;52.742;15.242;2022-07-23T05:40:09;13.20;;;7.75;;
69334;SDS011;56477;52.742;15.242;2022-07-23T05:42:36;12.77;;;7.63;;
69334;SDS011;56477;52.742;15.242;2022-07-23T05:45:03;9.27;;;6.80;;
69334;SDS011;56477;52.742;15.242;2022-07-23T05:47:41;11.93;;;7.07;;
69334;SDS011;56477;52.742;15.242;2022-07-23T05:50:14;9.77;;;6.70;;
69334;SDS011;56477;52.742;15.242;2022-07-23T05:52:41;12.07;;;7.32;;
69334;SDS011;56477;52.742;15.242;2022-07-23T05:55:08;13.52;;;7.65;;
69334;SDS011;56477;52.742;15.242;2022-07-23T05:57:35;12.67;;;7.57;;
69334;SDS011;56477;52.742;15.242;2022-07-23T06:00:02;14.90;;;8.30;;
69334;SDS011;56477;52.742;15.242;2022-07-23T06:02:30;12.90;;;7.88;;
69334;SDS011;56477;52.742;15.242;2022-07-23T06:04:56;13.30;;;7.18;;
69334;SDS011;56477;52.742;15.242;2022-07-23T06:07:22;14.67;;;7.47;;
69334;SDS011;56477;52.742;15.242;2022-07-23T06:09:48;12.25;;;8.02;;
69334;SDS011;56477;52.742;15.242;2022-07-23T06:12:17;12.98;;;7.65;;
69334;SDS011;56477;52.742;15.242;2022-07-23T06:14:43;13.80;;;7.55;;
69334;SDS011;56477;52.742;15.242;2022-07-23T06:17:09;11.90;;;8.13;;
69334;SDS011;56477;52.742;15.242;2022-07-23T06:19:35;12.98;;;7.90;;
69334;SDS011;56477;52.742;15.242;2022-07-23T06:22:01;12.52;;;7.25;;
69334;SDS011;56477;52.742;15.242;2022-07-23T06:24:27;11.77;;;7.75;;
69334;SDS011;56477;52.742;15.242;2022-07-23T06:26:53;12.23;;;7.00;;
69334;SDS011;56477;52.742;15.242;2022-07-23T06:29:19;9.75;;;6.85;;
69334;SDS011;56477;52.742;15.242;2022-07-23T06:31:45;12.30;;;6.72;;
69334;SDS011;56477;52.742;15.242;2022-07-23T06:34:11;9.63;;;6.23;;
69334;SDS011;56477;52.742;15.242;2022-07-23T06:36:37;11.68;;;6.80;;
69334;SDS011;56477;52.742;15.242;2022-07-23T06:39:03;9.63;;;6.03;;
69334;SDS011;56477;52.742;15.242;2022-07-23T06:41:29;13.02;;;7.13;;
69334;SDS011;56477;52.742;15.242;2022-07-23T06:43:55;11.17;;;6.30;;
69334;SDS011;56477;52.742;15.242;2022-07-23T06:46:20;9.55;;;5.35;;
69334;SDS011;56477;52.742;15.242;2022-07-23T06:48:47;8.73;;;5.80;;
69334;SDS011;56477;52.742;15.242;2022-07-23T06:51:13;9.05;;;5.63;;
69334;SDS011;56477;52.742;15.242;2022-07-23T06:53:39;13.80;;;6.43;;
69334;SDS011;56477;52.742;15.242;2022-07-23T06:56:05;10.27;;;6.60;;
69334;SDS011;56477;52.742;15.242;2022-07-23T06:58:31;8.85;;;5.97;;
69334;SDS011;56477;52.742;15.242;2022-07-23T07:00:56;8.43;;;6.28;;
69334;SDS011;56477;52.742;15.242;2022-07-23T07:03:22;11.77;;;7.03;;
69334;SDS011;56477;52.742;15.242;2022-07-23T07:05:48;10.77;;;6.37;;
69334;SDS011;56477;52.742;15.242;2022-07-23T07:08:15;10.52;;;6.78;;
69334;SDS011;56477;52.742;15.242;2022-07-23T07:10:41;10.60;;;6.63;;
69334;SDS011;56477;52.742;15.242;2022-07-23T07:13:07;9.98;;;6.90;;
69334;SDS011;56477;52.742;15.242;2022-07-23T07:15:33;11.15;;;6.38;;
69334;SDS011;56477;52.742;15.242;2022-07-23T07:17:59;11.57;;;6.43;;
69334;SDS011;56477;52.742;15.242;2022-07-23T07:20:25;10.18;;;6.35;;
69334;SDS011;56477;52.742;15.242;2022-07-23T07:22:52;10.02;;;5.90;;
69334;SDS011;56477;52.742;15.242;2022-07-23T07:25:18;9.25;;;6.57;;
69334;SDS011;56477;52.742;15.242;2022-07-23T07:27:44;13.03;;;6.70;;
69334;SDS011;56477;52.742;15.242;2022-07-23T07:30:10;8.75;;;5.95;;
69334;SDS011;56477;52.742;15.242;2022-07-23T07:32:36;9.85;;;7.03;;
69334;SDS011;56477;52.742;15.242;2022-07-23T07:35:03;10.23;;;6.60;;
69334;SDS011;56477;52.742;15.242;2022-07-23T07:37:30;9.93;;;6.07;;
69334;SDS011;56477;52.742;15.242;2022-07-23T07:39:55;8.75;;;5.90;;
69334;SDS011;56477;52.742;15.242;2022-07-23T07:42:21;9.95;;;6.35;;
69334;SDS011;56477;52.742;15.242;2022-07-23T07:44:47;10.47;;;6.93;;
69334;SDS011;56477;52.742;15.242;2022-07-23T07:47:13;10.45;;;6.25;;
69334;SDS011;56477;52.742;15.242;2022-07-23T07:49:41;10.40;;;6.68;;
69334;SDS011;56477;52.742;15.242;2022-07-23T07:52:08;10.88;;;6.88;;
69334;SDS011;56477;52.742;15.242;2022-07-23T07:54:34;9.23;;;6.60;;
69334;SDS011;56477;52.742;15.242;2022-07-23T07:57:00;10.43;;;6.93;;
69334;SDS011;56477;52.742;15.242;2022-07-23T07:59:26;12.30;;;6.97;;
69334;SDS011;56477;52.742;15.242;2022-07-23T08:01:51;10.23;;;5.93;;
69334;SDS011;56477;52.742;15.242;2022-07-23T08:04:18;10.77;;;6.30;;
69334;SDS011;56477;52.742;15.242;2022-07-23T08:06:44;11.43;;;6.85;;
69334;SDS011;56477;52.742;15.242;2022-07-23T08:09:09;10.70;;;6.85;;
69334;SDS011;56477;52.742;15.242;2022-07-23T08:11:36;9.15;;;6.50;;
69334;SDS011;56477;52.742;15.242;2022-07-23T08:14:02;14.20;;;7.07;;
69334;SDS011;56477;52.742;15.242;2022-07-23T08:16:28;11.30;;;5.83;;
69334;SDS011;56477;52.742;15.242;2022-07-23T08:18:54;11.32;;;6.35;;
69334;SDS011;56477;52.742;15.242;2022-07-23T08:21:20;12.60;;;7.05;;
69334;SDS011;56477;52.742;15.242;2022-07-23T08:23:45;12.40;;;6.85;;
69334;SDS011;56477;52.742;15.242;2022-07-23T08:26:12;11.20;;;6.90;;
69334;SDS011;56477;52.742;15.242;2022-07-23T08:28:37;15.15;;;7.75;;
69334;SDS011;56477;52.742;15.242;2022-07-23T08:31:03;12.55;;;6.97;;
69334;SDS011;56477;52.742;15.242;2022-07-23T08:33:31;13.63;;;7.80;;
69334;SDS011;56477;52.742;15.242;2022-07-23T08:35:57;13.10;;;7.43;;
69334;SDS011;56477;52.742;15.242;2022-07-23T08:38:23;15.73;;;9.52;;
69334;SDS011;56477;52.742;15.242;2022-07-23T08:40:54;20.80;;;9.27;;
69334;SDS011;56477;52.742;15.242;2022-07-23T08:43:23;16.50;;;8.55;;
69334;SDS011;56477;52.742;15.242;2022-07-23T08:45:52;18.10;;;9.00;;
69334;SDS011;56477;52.742;15.242;2022-07-23T08:48:23;19.77;;;10.07;;
69334;SDS011;56477;52.742;15.242;2022-07-23T08:50:52;16.63;;;9.15;;
69334;SDS011;56477;52.742;15.242;2022-07-23T08:53:20;20.95;;;9.60;;
69334;SDS011;56477;52.742;15.242;2022-07-23T08:55:48;16.70;;;9.45;;
69334;SDS011;56477;52.742;15.242;2022-07-23T08:58:15;14.90;;;8.85;;
69334;SDS011;56477;52.742;15.242;2022-07-23T09:00:42;14.87;;;8.00;;
69334;SDS011;56477;52.742;15.242;2022-07-23T09:03:15;11.87;;;6.67;;
69334;SDS011;56477;52.742;15.242;2022-07-23T09:05:43;10.68;;;6.20;;
69334;SDS011;56477;52.742;15.242;2022-07-23T09:08:12;10.82;;;6.57;;
69334;SDS011;56477;52.742;15.242;2022-07-23T09:10:56;11.00;;;6.30;;
69334;SDS011;56477;52.742;15.242;2022-07-23T09:15:49;10.07;;;5.63;;
69334;SDS011;56477;52.742;15.242;2022-07-23T09:18:16;8.50;;;6.17;;
69334;SDS011;56477;52.742;15.242;2022-07-23T09:20:45;9.25;;;5.60;;
69334;SDS011;56477;52.742;15.242;2022-07-23T09:23:11;11.88;;;5.95;;
69334;SDS011;56477;52.742;15.242;2022-07-23T09:25:37;11.25;;;6.55;;
69334;SDS011;56477;52.742;15.242;2022-07-23T09:28:03;10.77;;;6.07;;
69334;SDS011;56477;52.742;15.242;2022-07-23T09:30:32;9.03;;;5.40;;
69334;SDS011;56477;52.742;15.242;2022-07-23T09:33:09;10.83;;;5.50;;
69334;SDS011;56477;52.742;15.242;2022-07-23T09:35:47;8.77;;;5.40;;
69334;SDS011;56477;52.742;15.242;2022-07-23T09:38:17;11.45;;;6.30;;
69334;SDS011;56477;52.742;15.242;2022-07-23T09:40:46;9.88;;;6.28;;
69334;SDS011;56477;52.742;15.242;2022-07-23T09:43:13;11.60;;;6.45;;
69334;SDS011;56477;52.742;15.242;2022-07-23T09:45:53;12.27;;;5.90;;
69334;SDS011;56477;52.742;15.242;2022-07-23T09:51:49;9.38;;;5.60;;
69334;SDS011;56477;52.742;15.242;2022-07-23T09:57:01;8.55;;;5.55;;
69334;SDS011;56477;52.742;15.242;2022-07-23T09:59:31;8.38;;;5.30;;
69334;SDS011;56477;52.742;15.242;2022-07-23T10:02:00;8.75;;;5.53;;
69334;SDS011;56477;52.742;15.242;2022-07-23T10:04:27;8.13;;;5.23;;
69334;SDS011;56477;52.742;15.242;2022-07-23T10:06:56;9.20;;;5.93;;
69334;SDS011;56477;52.742;15.242;2022-07-23T10:09:28;11.93;;;5.68;;
69334;SDS011;56477;52.742;15.242;2022-07-23T10:11:57;8.30;;;5.50;;
69334;SDS011;56477;52.742;15.242;2022-07-23T10:14:29;9.73;;;5.65;;
69334;SDS011;56477;52.742;15.242;2022-07-23T10:16:58;8.13;;;5.43;;
69334;SDS011;56477;52.742;15.242;2022-07-23T10:19:24;9.43;;;5.40;;
69334;SDS011;56477;52.742;15.242;2022-07-23T10:22:00;8.87;;;5.57;;
69334;SDS011;56477;52.742;15.242;2022-07-23T10:24:43;8.32;;;4.70;;
69334;SDS011;56477;52.742;15.242;2022-07-23T10:35:36;8.17;;;5.47;;
69334;SDS011;56477;52.742;15.242;2022-07-23T10:38:23;10.20;;;5.17;;
69334;SDS011;56477;52.742;15.242;2022-07-23T10:40:53;7.47;;;4.30;;
69334;SDS011;56477;52.742;15.242;2022-07-23T10:43:24;6.15;;;4.40;;
69334;SDS011;56477;52.742;15.242;2022-07-23T10:45:50;9.75;;;5.28;;
69334;SDS011;56477;52.742;15.242;2022-07-23T10:48:18;7.28;;;4.28;;
69334;SDS011;56477;52.742;15.242;2022-07-23T11:02:54;11.55;;;5.43;;
69334;SDS011;56477;52.742;15.242;2022-07-23T11:05:25;7.35;;;4.63;;
69334;SDS011;56477;52.742;15.242;2022-07-23T11:08:21;9.47;;;4.83;;
69334;SDS011;56477;52.742;15.242;2022-07-23T11:10:54;9.37;;;5.40;;
69334;SDS011;56477;52.742;15.242;2022-07-23T11:13:39;6.88;;;4.30;;
69334;SDS011;56477;52.742;15.242;2022-07-23T11:24:00;8.23;;;5.05;;
69334;SDS011;56477;52.742;15.242;2022-07-23T11:31:58;9.23;;;4.65;;
69334;SDS011;56477;52.742;15.242;2022-07-23T11:34:47;7.80;;;4.70;;
69334;SDS011;56477;52.742;15.242;2022-07-23T11:37:28;7.93;;;4.93;;
69334;SDS011;56477;52.742;15.242;2022-07-23T11:39:54;7.38;;;4.95;;
69334;SDS011;56477;52.742;15.242;2022-07-23T11:42:21;7.47;;;4.53;;
69334;SDS011;56477;52.742;15.242;2022-07-23T11:44:49;7.57;;;4.63;;
69334;SDS011;56477;52.742;15.242;2022-07-23T11:47:20;7.20;;;4.60;;
69334;SDS011;56477;52.742;15.242;2022-07-23T11:49:51;8.00;;;4.82;;
69334;SDS011;56477;52.742;15.242;2022-07-23T11:52:21;6.18;;;4.30;;
69334;SDS011;56477;52.742;15.242;2022-07-23T11:57:26;6.67;;;4.20;;
69334;SDS011;56477;52.742;15.242;2022-07-23T11:59:55;8.67;;;4.27;;
69334;SDS011;56477;52.742;15.242;2022-07-23T12:02:22;7.63;;;4.80;;
69334;SDS011;56477;52.742;15.242;2022-07-23T12:04:51;7.68;;;4.80;;
69334;SDS011;56477;52.742;15.242;2022-07-23T12:09:53;7.55;;;4.45;;
69334;SDS011;56477;52.742;15.242;2022-07-23T12:12:23;9.50;;;4.63;;
69334;SDS011;56477;52.742;15.242;2022-07-23T12:15:10;7.73;;;4.30;;
69334;SDS011;56477;52.742;15.242;2022-07-23T12:17:39;6.47;;;4.57;;
69334;SDS011;56477;52.742;15.242;2022-07-23T12:20:14;7.88;;;3.92;;
69334;SDS011;56477;52.742;15.242;2022-07-23T12:22:47;7.45;;;4.72;;
69334;SDS011;56477;52.742;15.242;2022-07-23T12:25:18;6.05;;;4.38;;
69334;SDS011;56477;52.742;15.242;2022-07-23T12:33:21;8.13;;;4.18;;
69334;SDS011;56477;52.742;15.242;2022-07-23T12:35:49;9.43;;;4.53;;
69334;SDS011;56477;52.742;15.242;2022-07-23T12:38:21;9.63;;;4.53;;
69334;SDS011;56477;52.742;15.242;2022-07-23T12:40:49;6.83;;;4.10;;
69334;SDS011;56477;52.742;15.242;2022-07-23T12:43:20;7.23;;;4.37;;
69334;SDS011;56477;52.742;15.242;2022-07-23T12:45:50;8.85;;;4.90;;
69334;SDS011;56477;52.742;15.242;2022-07-23T12:48:26;5.45;;;4.18;;
69334;SDS011;56477;52.742;15.242;2022-07-23T12:53:36;7.03;;;4.28;;
69334;SDS011;56477;52.742;15.242;2022-07-23T12:56:18;6.17;;;4.07;;
69334;SDS011;56477;52.742;15.242;2022-07-23T12:59:05;6.63;;;4.15;;
69334;SDS011;56477;52.742;15.242;2022-07-23T13:01:37;8.27;;;4.45;;
69334;SDS011;56477;52.742;15.242;2022-07-23T13:04:18;7.97;;;4.03;;
69334;SDS011;56477;52.742;15.242;2022-07-23T13:06:46;8.25;;;4.30;;
69334;SDS011;56477;52.742;15.242;2022-07-23T13:09:15;9.37;;;4.57;;
69334;SDS011;56477;52.742;15.242;2022-07-23T13:11:43;6.80;;;4.20;;
69334;SDS011;56477;52.742;15.242;2022-07-23T13:14:11;5.70;;;4.40;;
69334;SDS011;56477;52.742;15.242;2022-07-23T13:16:38;8.32;;;4.20;;
69334;SDS011;56477;52.742;15.242;2022-07-23T13:19:05;7.43;;;4.03;;
69334;SDS011;56477;52.742;15.242;2022-07-23T13:21:32;6.68;;;4.70;;
69334;SDS011;56477;52.742;15.242;2022-07-23T13:23:58;11.57;;;4.20;;
69334;SDS011;56477;52.742;15.242;2022-07-23T13:26:24;7.37;;;5.20;;
69334;SDS011;56477;52.742;15.242;2022-07-23T13:28:51;9.77;;;4.70;;
69334;SDS011;56477;52.742;15.242;2022-07-23T13:31:17;6.38;;;4.20;;
69334;SDS011;56477;52.742;15.242;2022-07-23T13:33:43;7.50;;;4.20;;
69334;SDS011;56477;52.742;15.242;2022-07-23T13:36:09;6.68;;;4.25;;
69334;SDS011;56477;52.742;15.242;2022-07-23T13:38:35;6.10;;;3.70;;
69334;SDS011;56477;52.742;15.242;2022-07-23T13:41:01;5.60;;;3.78;;
69334;SDS011;56477;52.742;15.242;2022-07-23T13:43:29;5.60;;;3.75;;
69334;SDS011;56477;52.742;15.242;2022-07-23T13:45:55;5.80;;;3.33;;
69334;SDS011;56477;52.742;15.242;2022-07-23T13:48:21;6.27;;;4.03;;
69334;SDS011;56477;52.742;15.242;2022-07-23T13:50:48;7.47;;;3.83;;
69334;SDS011;56477;52.742;15.242;2022-07-23T13:53:16;7.93;;;3.95;;
69334;SDS011;56477;52.742;15.242;2022-07-23T13:55:44;5.10;;;3.63;;
69334;SDS011;56477;52.742;15.242;2022-07-23T13:58:11;6.68;;;3.63;;
69334;SDS011;56477;52.742;15.242;2022-07-23T14:00:38;7.33;;;4.67;;
69334;SDS011;56477;52.742;15.242;2022-07-23T14:03:06;5.83;;;3.30;;
69334;SDS011;56477;52.742;15.242;2022-07-23T14:05:32;4.97;;;3.75;;
69334;SDS011;56477;52.742;15.242;2022-07-23T14:07:58;7.00;;;3.70;;
69334;SDS011;56477;52.742;15.242;2022-07-23T14:10:24;4.85;;;3.45;;
69334;SDS011;56477;52.742;15.242;2022-07-23T14:12:51;6.97;;;3.77;;
69334;SDS011;56477;52.742;15.242;2022-07-23T14:15:23;7.80;;;4.70;;
69334;SDS011;56477;52.742;15.242;2022-07-23T14:17:52;15.32;;;4.22;;
69334;SDS011;56477;52.742;15.242;2022-07-23T14:20:18;7.45;;;4.72;;
69334;SDS011;56477;52.742;15.242;2022-07-23T14:22:44;5.85;;;3.88;;
69334;SDS011;56477;52.742;15.242;2022-07-23T14:25:11;5.20;;;3.53;;
69334;SDS011;56477;52.742;15.242;2022-07-23T14:27:37;6.03;;;4.00;;
69334;SDS011;56477;52.742;15.242;2022-07-23T14:30:03;7.97;;;4.60;;
69334;SDS011;56477;52.742;15.242;2022-07-23T14:32:32;6.23;;;3.90;;
69334;SDS011;56477;52.742;15.242;2022-07-23T14:34:57;7.13;;;3.28;;
69334;SDS011;56477;52.742;15.242;2022-07-23T14:37:23;5.07;;;3.88;;
69334;SDS011;56477;52.742;15.242;2022-07-23T14:39:50;5.82;;;3.83;;
69334;SDS011;56477;52.742;15.242;2022-07-23T14:42:16;6.38;;;3.42;;
69334;SDS011;56477;52.742;15.242;2022-07-23T14:44:42;8.23;;;3.63;;
69334;SDS011;56477;52.742;15.242;2022-07-23T14:47:09;8.20;;;5.43;;
69334;SDS011;56477;52.742;15.242;2022-07-23T14:49:35;8.80;;;4.53;;
69334;SDS011;56477;52.742;15.242;2022-07-23T14:52:02;6.85;;;4.32;;
69334;SDS011;56477;52.742;15.242;2022-07-23T14:54:29;4.95;;;3.65;;
69334;SDS011;56477;52.742;15.242;2022-07-23T14:56:55;6.15;;;3.80;;
69334;SDS011;56477;52.742;15.242;2022-07-23T14:59:22;6.57;;;4.88;;
69334;SDS011;56477;52.742;15.242;2022-07-23T15:01:49;4.77;;;3.47;;
69334;SDS011;56477;52.742;15.242;2022-07-23T15:04:15;6.30;;;3.60;;
69334;SDS011;56477;52.742;15.242;2022-07-23T15:06:41;6.10;;;3.50;;
69334;SDS011;56477;52.742;15.242;2022-07-23T15:09:08;4.65;;;4.03;;
69334;SDS011;56477;52.742;15.242;2022-07-23T15:11:34;8.30;;;3.92;;
69334;SDS011;56477;52.742;15.242;2022-07-23T15:14:02;4.72;;;3.10;;
69334;SDS011;56477;52.742;15.242;2022-07-23T15:16:28;5.72;;;3.60;;
69334;SDS011;56477;52.742;15.242;2022-07-23T15:18:54;5.93;;;3.67;;
69334;SDS011;56477;52.742;15.242;2022-07-23T15:21:20;7.90;;;4.32;;
69334;SDS011;56477;52.742;15.242;2022-07-23T15:23:47;5.43;;;3.60;;
69334;SDS011;56477;52.742;15.242;2022-07-23T15:26:13;4.97;;;3.47;;